CheckWX is a tool to help pilots better visualize weather data.  It is not intended as a substitute for an official pre-flight weather briefing.

12:22:33 UTC

DAAD TAF
Bou Saada Airport
Algeria
TAF DAAD 221100Z 2212/2221 33014KT 8000 FEW010 BKN040 PROB40 TEMPO 2212/2218 34015G25KT 5000 -RA FEW026TCU

Mar-22@
12:00 UTC

Mar-22 @ 12:00 UTC

Mar-22@
21:00 UTC

Mar-22 @ 21:00 UTC

TAF DAAD 221100Z 2212/2221 33014KT 8000 FEW010 BKN040
Wind
  • 330° at 14 KTS
Cloud Levels
  • Few at 1,000' AGL
  • Broken at 4,000' AGL

Mar-22@
12:00 UTC

Mar-22 @ 12:00 UTC

Mar-22@
18:00 UTC

Mar-22 @ 18:00 UTC

PROB40 TEMPO 2212/2218 34015G25KT 5000 -RA FEW026TCU

Temporary - 40% Likelihood

Temporary - 40% Likelihood during this time.

Wind
  • 340° at 15 KTS
  • {Gusting to 25 KTS
Conditions
Light Rain
Cloud Levels
  • Few at 2,600' AGL